Time,TemperatureF,DewpointF,PressureIn,WindDirection,WindDirectionDegrees,WindSpeedMPH,WindSpeedGustMPH,Humidity,HourlyPrecipIn,Conditions,Clouds,dailyrainin,SoftwareType,DateUTC
2013-03-29 00:03:00,32.1,21.0,30.30,West,281,3.0,-999.0,64,-99.99,,,0.00,weatherlink.com 1.10,2013-03-29 04:03:00,
2013-03-29 00:18:00,31.8,21.0,30.30,West,281,5.0,-999.0,64,-99.99,,,0.00,weatherlink.com 1.10,2013-03-29 04:18:00,
2013-03-29 00:33:00,31.8,20.0,30.30,West,281,4.0,-999.0,63,-99.99,,,0.00,weatherlink.com 1.10,2013-03-29 04:33:00,
2013-03-29 00:48:00,31.9,21.0,30.30,West,279,6.0,-999.0,64,-99.99,,,0.00,weatherlink.com 1.10,2013-03-29 04:48:00,
2013-03-29 01:03:00,31.7,21.0,30.30,WNW,282,5.0,-999.0,64,-99.99,,,0.00,weatherlink.com 1.10,2013-03-29 05:03:00,
2013-03-29 01:18:00,31.3,21.0,30.30,West,281,5.0,-999.0,65,-99.99,,,0.00,weatherlink.com 1.10,2013-03-29 05:18:00,
2013-03-29 01:33:00,31.2,21.0,30.30,West,281,5.0,-999.0,66,-99.99,,,0.00,weatherlink.com 1.10,2013-03-29 05:33:00,
2013-03-29 01:48:00,30.1,21.0,30.30,West,281,3.0,-999.0,69,-99.99,,,0.00,weatherlink.com 1.10,2013-03-29 05:48:00,
2013-03-29 02:03:00,29.4,21.0,30.30,West,281,3.0,-999.0,71,-99.99,,,0.00,weatherlink.com 1.10,2013-03-29 06:03:00,
2013-03-29 02:22:00,27.4,21.0,30.30,West,281,3.0,-999.0,77,-99.99,,,0.00,weatherlink.com 1.10,2013-03-29 06:22:00,
2013-03-29 02:33:00,26.4,21.0,30.30,West,281,3.0,-999.0,79,-99.99,,,0.00,weatherlink.com 1.10,2013-03-29 06:33:00,
2013-03-29 02:48:00,26.0,22.0,30.30,West,281,3.0,-999.0,83,-99.99,,,0.00,weatherlink.com 1.10,2013-03-29 06:48:00,
2013-03-29 03:03:00,27.5,22.0,30.30,West,281,1.0,-999.0,79,-99.99,,,0.00,weatherlink.com 1.10,2013-03-29 07:03:00,
2013-03-29 03:18:00,27.3,21.0,30.30,West,281,3.0,-999.0,78,-99.99,,,0.00,weatherlink.com 1.10,2013-03-29 07:18:00,
2013-03-29 03:33:00,27.6,21.0,30.30,West,281,3.0,-999.0,77,-99.99,,,0.00,weatherlink.com 1.10,2013-03-29 07:33:00,
2013-03-29 03:48:00,28.0,22.0,30.29,West,281,3.0,-999.0,78,-99.99,,,0.00,weatherlink.com 1.10,2013-03-29 07:48:00,
2013-03-29 04:03:00,28.3,23.0,30.29,West,281,2.0,-999.0,79,-99.99,,,0.00,weatherlink.com 1.10,2013-03-29 08:03:00,
2013-03-29 04:18:00,26.9,22.0,30.29,West,281,3.0,-999.0,83,-99.99,,,0.00,weatherlink.com 1.10,2013-03-29 08:18:00,
2013-03-29 04:33:00,25.8,22.0,30.29,West,281,2.0,-999.0,85,-99.99,,,0.00,weatherlink.com 1.10,2013-03-29 08:33:00,
2013-03-29 04:48:00,25.4,22.0,30.29,West,281,2.0,-999.0,87,-99.99,,,0.00,weatherlink.com 1.10,2013-03-29 08:48:00,
2013-03-29 05:03:00,26.9,24.0,30.29,West,281,2.0,-999.0,87,-99.99,,,0.00,weatherlink.com 1.10,2013-03-29 09:03:00,
2013-03-29 05:18:00,26.2,23.0,30.29,West,281,3.0,-999.0,87,-99.99,,,0.00,weatherlink.com 1.10,2013-03-29 09:18:00,
2013-03-29 05:33:00,26.8,24.0,30.29,West,281,2.0,-999.0,89,-99.99,,,0.00,weatherlink.com 1.10,2013-03-29 09:33:00,
2013-03-29 05:48:00,27.0,25.0,30.28,West,281,1.0,-999.0,90,-99.99,,,0.00,weatherlink.com 1.10,2013-03-29 09:48:00,
2013-03-29 06:03:00,26.4,24.0,30.28,West,281,0.0,-999.0,89,-99.99,,,0.00,weatherlink.com 1.10,2013-03-29 10:03:00,
2013-03-29 06:18:00,25.6,23.0,30.28,West,281,0.0,-999.0,89,-99.99,,,0.00,weatherlink.com 1.10,2013-03-29 10:18:00,
2013-03-29 06:33:00,23.6,21.0,30.28,West,281,0.0,-999.0,88,-99.99,,,0.00,weatherlink.com 1.10,2013-03-29 10:33:00,
2013-03-29 06:48:00,22.9,20.0,30.28,West,281,0.0,-999.0,90,-99.99,,,0.00,weatherlink.com 1.10,2013-03-29 10:48:00,
2013-03-29 07:03:00,22.1,20.0,30.29,West,281,0.0,-999.0,90,-99.99,,,0.00,weatherlink.com 1.10,2013-03-29 11:03:00,
2013-03-29 07:18:00,21.0,19.0,30.28,West,281,0.0,-999.0,90,-99.99,,,0.00,weatherlink.com 1.10,2013-03-29 11:18:00,
2013-03-29 07:33:00,20.9,19.0,30.29,West,281,0.0,-999.0,91,-99.99,,,0.00,weatherlink.com 1.10,2013-03-29 11:33:00,
2013-03-29 07:48:00,21.1,19.0,30.29,West,281,0.0,-999.0,91,-99.99,,,0.00,weatherlink.com 1.10,2013-03-29 11:48:00,
2013-03-29 08:03:00,22.1,20.0,30.30,West,281,1.0,-999.0,93,-99.99,,,0.00,weatherlink.com 1.10,2013-03-29 12:03:00,
2013-03-29 08:18:00,24.3,23.0,30.30,West,281,0.0,-999.0,94,-99.99,,,0.00,weatherlink.com 1.10,2013-03-29 12:18:00,
2013-03-29 08:33:00,27.3,26.0,30.30,West,281,2.0,-999.0,95,-99.99,,,0.00,weatherlink.com 1.10,2013-03-29 12:33:00,
2013-03-29 08:48:00,28.6,27.0,30.30,West,281,3.0,-999.0,95,-99.99,,,0.00,weatherlink.com 1.10,2013-03-29 12:48:00,
2013-03-29 09:05:00,29.4,28.0,30.30,West,281,3.0,-999.0,95,-99.99,,,0.00,weatherlink.com 1.10,2013-03-29 13:05:00,
2013-03-29 09:18:00,30.8,30.0,30.30,West,281,0.0,-999.0,95,-99.99,,,0.00,weatherlink.com 1.10,2013-03-29 13:18:00,
2013-03-29 09:33:00,31.4,30.0,30.30,West,281,3.0,-999.0,95,-99.99,,,0.00,weatherlink.com 1.10,2013-03-29 13:33:00,
2013-03-29 09:48:00,31.9,31.0,30.30,West,281,4.0,-999.0,95,-99.99,,,0.00,weatherlink.com 1.10,2013-03-29 13:48:00,
2013-03-29 10:05:00,32.7,32.0,30.30,West,279,3.0,-999.0,95,-99.99,,,0.00,weatherlink.com 1.10,2013-03-29 14:05:00,
2013-03-29 10:18:00,33.4,32.0,30.30,West,279,3.0,-999.0,95,-99.99,,,0.00,weatherlink.com 1.10,2013-03-29 14:18:00,
2013-03-29 10:33:00,35.0,34.0,30.30,West,279,3.0,-999.0,96,-99.99,,,0.00,weatherlink.com 1.10,2013-03-29 14:33:00,
2013-03-29 10:48:00,36.9,36.0,30.30,West,279,0.0,-999.0,95,-99.99,,,0.00,weatherlink.com 1.10,2013-03-29 14:48:00,
2013-03-29 11:03:00,38.6,36.0,30.30,West,278,3.0,-999.0,90,-99.99,,,0.00,weatherlink.com 1.10,2013-03-29 15:03:00,
2013-03-29 11:18:00,39.8,36.0,30.30,SW,231,2.0,-999.0,86,-99.99,,,0.00,weatherlink.com 1.10,2013-03-29 15:18:00,
2013-03-29 11:34:00,41.4,36.0,30.30,SSW,197,3.0,-999.0,81,-99.99,,,0.00,weatherlink.com 1.10,2013-03-29 15:34:00,
2013-03-29 11:48:00,42.2,34.0,30.30,SSW,210,5.0,-999.0,72,-99.99,,,0.00,weatherlink.com 1.10,2013-03-29 15:48:00,
2013-03-29 12:03:00,43.1,32.0,30.30,WSW,245,2.0,-999.0,65,-99.99,,,0.00,weatherlink.com 1.10,2013-03-29 16:03:00,
2013-03-29 12:18:00,44.0,32.0,30.30,SW,232,7.0,-999.0,63,-99.99,,,0.00,weatherlink.com 1.10,2013-03-29 16:18:00,
2013-03-29 12:33:00,44.5,28.0,30.29,WSW,254,6.0,-999.0,52,-99.99,,,0.00,weatherlink.com 1.10,2013-03-29 16:33:00,
2013-03-29 12:48:00,45.5,29.0,30.29,SW,215,8.0,-999.0,52,-99.99,,,0.00,weatherlink.com 1.10,2013-03-29 16:48:00,
2013-03-29 13:03:00,46.2,29.0,30.29,West,266,5.0,-999.0,52,-99.99,,,0.00,weatherlink.com 1.10,2013-03-29 17:03:00,
2013-03-29 13:18:00,46.5,27.0,30.28,West,261,6.0,-999.0,47,-99.99,,,0.00,weatherlink.com 1.10,2013-03-29 17:18:00,
2013-03-29 13:33:00,47.4,27.0,30.27,West,281,8.0,-999.0,46,-99.99,,,0.00,weatherlink.com 1.10,2013-03-29 17:33:00,
2013-03-29 13:48:00,47.7,25.0,30.27,NW,318,3.0,-999.0,42,-99.99,,,0.00,weatherlink.com 1.10,2013-03-29 17:48:00,
2013-03-29 14:03:00,48.4,28.0,30.27,West,266,7.0,-999.0,46,-99.99,,,0.00,weatherlink.com 1.10,2013-03-29 18:03:00,
2013-03-29 14:18:00,47.8,28.0,30.27,SW,228,7.0,-999.0,46,-99.99,,,0.00,weatherlink.com 1.10,2013-03-29 18:18:00,
2013-03-29 14:33:00,49.0,28.0,30.26,West,279,13.0,-999.0,44,-99.99,,,0.00,weatherlink.com 1.10,2013-03-29 18:33:00,
2013-03-29 14:48:00,48.9,27.0,30.26,NW,307,11.0,-999.0,42,-99.99,,,0.00,weatherlink.com 1.10,2013-03-29 18:48:00,
2013-03-29 15:03:00,48.8,26.0,30.25,West,267,4.0,-999.0,41,-99.99,,,0.00,weatherlink.com 1.10,2013-03-29 19:03:00,
2013-03-29 15:33:00,48.6,26.0,30.24,WSW,244,12.0,-999.0,42,-99.99,,,0.00,weatherlink.com 1.10,2013-03-29 19:33:00,
2013-03-29 16:03:00,48.3,26.0,30.24,SW,219,6.0,-999.0,42,-99.99,,,0.00,weatherlink.com 1.10,2013-03-29 20:03:00,
2013-03-29 16:18:00,48.5,25.0,30.24,WSW,255,6.0,-999.0,40,-99.99,,,0.00,weatherlink.com 1.10,2013-03-29 20:18:00,
2013-03-29 16:33:00,48.6,27.0,30.24,West,262,14.0,-999.0,43,-99.99,,,0.00,weatherlink.com 1.10,2013-03-29 20:33:00,
2013-03-29 16:48:00,48.0,27.0,30.23,WNW,283,12.0,-999.0,44,-99.99,,,0.00,weatherlink.com 1.10,2013-03-29 20:48:00,
2013-03-29 17:03:00,48.2,28.0,30.23,WSW,247,10.0,-999.0,45,-99.99,,,0.00,weatherlink.com 1.10,2013-03-29 21:03:00,
2013-03-29 17:18:00,47.7,28.0,30.23,SW,236,10.0,-999.0,46,-99.99,,,0.00,weatherlink.com 1.10,2013-03-29 21:18:00,
2013-03-29 17:33:00,47.6,25.0,30.23,West,271,9.0,-999.0,41,-99.99,,,0.00,weatherlink.com 1.10,2013-03-29 21:33:00,
2013-03-29 17:48:00,47.1,27.0,30.23,WSW,245,13.0,-999.0,45,-99.99,,,0.00,weatherlink.com 1.10,2013-03-29 21:48:00,
2013-03-29 18:03:00,46.9,26.0,30.23,West,262,10.0,-999.0,45,-99.99,,,0.00,weatherlink.com 1.10,2013-03-29 22:03:00,
2013-03-29 18:18:00,46.8,27.0,30.23,WSW,257,11.0,-999.0,47,-99.99,,,0.00,weatherlink.com 1.10,2013-03-29 22:18:00,
2013-03-29 18:33:00,46.6,26.0,30.23,West,264,11.0,-999.0,45,-99.99,,,0.00,weatherlink.com 1.10,2013-03-29 22:33:00,
2013-03-29 18:49:00,45.9,27.0,30.23,West,269,7.0,-999.0,48,-99.99,,,0.00,weatherlink.com 1.10,2013-03-29 22:49:00,
2013-03-29 19:03:00,45.3,27.0,30.23,West,263,8.0,-999.0,49,-99.99,,,0.00,weatherlink.com 1.10,2013-03-29 23:03:00,
2013-03-29 19:19:00,44.6,24.0,30.23,WSW,258,11.0,-999.0,45,-99.99,,,0.00,weatherlink.com 1.10,2013-03-29 23:19:00,
2013-03-29 19:33:00,43.6,25.0,30.23,West,269,3.0,-999.0,48,-99.99,,,0.00,weatherlink.com 1.10,2013-03-29 23:33:00,
2013-03-29 19:48:00,42.5,26.0,30.23,WSW,257,7.0,-999.0,52,-99.99,,,0.00,weatherlink.com 1.10,2013-03-29 23:48:00,
2013-03-29 20:04:00,40.9,26.0,30.23,West,260,4.0,-999.0,56,-99.99,,,0.00,weatherlink.com 1.10,2013-03-30 00:04:00,
2013-03-29 20:19:00,39.3,26.0,30.23,West,261,5.0,-999.0,59,-99.99,,,0.00,weatherlink.com 1.10,2013-03-30 00:19:00,
2013-03-29 20:34:00,38.0,26.0,30.23,West,263,4.0,-999.0,62,-99.99,,,0.00,weatherlink.com 1.10,2013-03-30 00:34:00,
2013-03-29 20:49:00,37.3,26.0,30.23,West,263,5.0,-999.0,65,-99.99,,,0.00,weatherlink.com 1.10,2013-03-30 00:49:00,
2013-03-29 21:04:00,36.9,28.0,30.24,WSW,258,4.0,-999.0,69,-99.99,,,0.00,weatherlink.com 1.10,2013-03-30 01:04:00,
2013-03-29 21:19:00,36.1,28.0,30.24,West,263,4.0,-999.0,71,-99.99,,,0.00,weatherlink.com 1.10,2013-03-30 01:19:00,
2013-03-29 21:34:00,35.0,28.0,30.24,West,261,3.0,-999.0,75,-99.99,,,0.00,weatherlink.com 1.10,2013-03-30 01:34:00,
2013-03-29 21:49:00,34.2,28.0,30.24,West,267,4.0,-999.0,79,-99.99,,,0.00,weatherlink.com 1.10,2013-03-30 01:49:00,
2013-03-29 22:04:00,33.2,28.0,30.25,West,262,4.0,-999.0,82,-99.99,,,0.00,weatherlink.com 1.10,2013-03-30 02:04:00,
2013-03-29 22:19:00,32.6,28.0,30.25,West,263,3.0,-999.0,83,-99.99,,,0.00,weatherlink.com 1.10,2013-03-30 02:19:00,
2013-03-29 22:34:00,32.0,27.0,30.25,West,263,0.0,-999.0,83,-99.99,,,0.00,weatherlink.com 1.10,2013-03-30 02:34:00,
2013-03-29 22:49:00,30.5,27.0,30.24,West,263,0.0,-999.0,85,-99.99,,,0.00,weatherlink.com 1.10,2013-03-30 02:49:00,
2013-03-29 23:04:00,29.4,26.0,30.25,West,263,0.0,-999.0,87,-99.99,,,0.00,weatherlink.com 1.10,2013-03-30 03:04:00,
2013-03-29 23:19:00,29.7,27.0,30.24,West,263,3.0,-999.0,90,-99.99,,,0.00,weatherlink.com 1.10,2013-03-30 03:19:00,
2013-03-29 23:34:00,30.1,28.0,30.24,West,263,2.0,-999.0,91,-99.99,,,0.00,weatherlink.com 1.10,2013-03-30 03:34:00,
2013-03-29 23:49:00,29.4,27.0,30.24,West,263,0.0,-999.0,90,-99.99,,,0.00,weatherlink.com 1.10,2013-03-30 03:49:00,